createdAt,value
2023-09-28T00:01:41.300Z,5.13
2023-09-28T00:04:08.559Z,5.32
2023-09-28T00:06:35.668Z,5.47
2023-09-28T00:09:02.589Z,5.22
2023-09-28T00:11:29.428Z,5.28
2023-09-28T00:13:56.465Z,5.28
2023-09-28T00:16:23.706Z,5.65
2023-09-28T00:18:50.533Z,5.00
2023-09-28T00:21:17.320Z,5.30
2023-09-28T00:23:44.240Z,5.22
2023-09-28T00:26:12.334Z,5.22
2023-09-28T00:28:41.450Z,4.85
2023-09-28T00:31:08.395Z,5.28
2023-09-28T00:33:35.336Z,4.70
2023-09-28T00:36:02.182Z,4.78
2023-09-28T00:38:29.070Z,5.00
2023-09-28T00:40:56.028Z,5.05
2023-09-28T00:43:31.101Z,4.90
2023-09-28T00:45:58.575Z,5.32
2023-09-28T00:48:26.287Z,5.10
2023-09-28T00:50:53.728Z,4.80
2023-09-28T00:53:22.706Z,4.75
2023-09-28T00:55:49.995Z,5.40
2023-09-28T00:58:17.162Z,5.50
2023-09-28T01:00:44.127Z,4.75
2023-09-28T01:03:12.674Z,4.95
2023-09-28T01:05:41.932Z,5.15
2023-09-28T01:08:08.953Z,4.72
2023-09-28T01:10:37.749Z,4.95
2023-09-28T01:13:12.554Z,5.20
2023-09-28T01:15:44.187Z,5.03
2023-09-28T01:18:18.275Z,4.70
2023-09-28T01:20:46.634Z,4.78
2023-09-28T01:23:15.077Z,4.75
2023-09-28T01:25:42.422Z,5.38
2023-09-28T01:28:11.619Z,5.38
2023-09-28T01:30:39.244Z,5.03
2023-09-28T01:33:10.522Z,4.85
2023-09-28T01:35:37.718Z,4.90
2023-09-28T01:38:10.654Z,4.78
2023-09-28T01:40:41.836Z,4.80
2023-09-28T01:43:09.042Z,4.53
2023-09-28T01:45:36.126Z,4.93
2023-09-28T01:48:06.460Z,4.93
2023-09-28T01:50:34.288Z,4.97
2023-09-28T01:53:01.671Z,5.38
2023-09-28T01:55:28.552Z,5.07
2023-09-28T01:57:55.416Z,5.43
2023-09-28T02:00:26.232Z,5.40
2023-09-28T02:02:56.280Z,5.60
2023-09-28T02:05:23.674Z,5.90
2023-09-28T02:08:00.358Z,5.93
2023-09-28T02:10:29.772Z,5.72
2023-09-28T02:12:59.433Z,6.07
2023-09-28T02:15:28.662Z,5.47
2023-09-28T02:17:55.580Z,6.00
2023-09-28T02:20:34.159Z,6.13
2023-09-28T02:23:03.257Z,5.65
2023-09-28T02:25:46.350Z,6.40
2023-09-28T02:30:39.888Z,5.60
2023-09-28T02:33:08.176Z,5.78
2023-09-28T02:35:35.090Z,5.75
2023-09-28T02:38:05.103Z,6.07
2023-09-28T02:40:33.230Z,6.03
2023-09-28T02:43:00.281Z,6.07
2023-09-28T02:45:27.104Z,6.10
2023-09-28T02:47:56.144Z,6.47
2023-09-28T02:50:23.707Z,6.07
2023-09-28T02:52:50.837Z,6.43
2023-09-28T02:55:20.276Z,6.55
2023-09-28T02:57:48.295Z,6.32
2023-09-28T03:00:31.930Z,6.50
2023-09-28T03:02:58.998Z,6.30
2023-09-28T03:05:29.485Z,6.03
2023-09-28T03:07:56.379Z,6.45
2023-09-28T03:10:26.244Z,6.32
2023-09-28T03:12:55.652Z,6.30
2023-09-28T03:15:22.501Z,5.80
2023-09-28T03:17:49.575Z,6.57
2023-09-28T03:20:19.044Z,5.47
2023-09-28T03:22:48.522Z,5.90
2023-09-28T03:25:19.619Z,6.70
2023-09-28T03:27:48.863Z,5.93
2023-09-28T03:30:17.281Z,6.45
2023-09-28T03:32:44.694Z,6.40
2023-09-28T03:35:13.154Z,6.10
2023-09-28T03:37:44.039Z,6.00
2023-09-28T03:40:13.167Z,6.03
2023-09-28T03:42:49.811Z,6.18
2023-09-28T03:45:22.225Z,5.63
2023-09-28T03:47:53.822Z,6.60
2023-09-28T03:50:22.749Z,6.25
2023-09-28T03:52:50.048Z,5.82
2023-09-28T03:55:20.027Z,6.40
2023-09-28T03:57:47.959Z,6.10
2023-09-28T04:00:17.347Z,6.03
2023-09-28T04:02:48.466Z,6.28
2023-09-28T04:05:16.629Z,5.45
2023-09-28T04:07:44.704Z,5.50
2023-09-28T04:10:13.141Z,6.22
2023-09-28T04:12:40.354Z,6.20
2023-09-28T04:15:09.142Z,6.15
2023-09-28T04:17:36.513Z,7.00
2023-09-28T04:20:07.688Z,7.03
2023-09-28T04:22:34.651Z,7.78
2023-09-28T04:25:01.517Z,8.80
2023-09-28T04:27:28.594Z,9.07
2023-09-28T04:29:56.049Z,8.65
2023-09-28T04:32:23.090Z,8.13
2023-09-28T04:34:50.323Z,7.72
2023-09-28T04:37:20.542Z,6.75
2023-09-28T04:39:47.556Z,6.75
2023-09-28T04:42:16.460Z,6.50
2023-09-28T04:44:45.585Z,5.90
2023-09-28T04:47:12.874Z,6.93
2023-09-28T04:49:42.053Z,6.30
2023-09-28T04:52:11.589Z,6.68
2023-09-28T04:54:39.348Z,6.30
2023-09-28T04:57:06.581Z,6.50
2023-09-28T04:59:39.932Z,6.63
2023-09-28T05:02:08.073Z,5.70
2023-09-28T05:04:36.429Z,6.18
2023-09-28T05:07:04.139Z,6.25
2023-09-28T05:09:31.220Z,6.03
2023-09-28T05:12:01.913Z,6.35
2023-09-28T05:14:29.550Z,6.93
2023-09-28T05:16:56.558Z,6.80
2023-09-28T05:19:23.859Z,6.22
2023-09-28T05:21:50.869Z,6.07
2023-09-28T05:24:17.811Z,6.40
2023-09-28T05:26:44.661Z,5.97
2023-09-28T05:29:11.980Z,6.07
2023-09-28T05:31:39.239Z,6.53
2023-09-28T05:34:06.599Z,6.40
2023-09-28T05:36:34.206Z,7.18
2023-09-28T05:39:01.048Z,5.93
2023-09-28T05:41:27.890Z,6.93
2023-09-28T05:43:54.924Z,6.75
2023-09-28T05:46:21.941Z,6.43
2023-09-28T05:48:49.208Z,6.45
2023-09-28T05:51:17.265Z,6.28
2023-09-28T05:55:47.666Z,6.47
2023-09-28T05:56:31.294Z,6.43
2023-09-28T05:58:58.210Z,6.53
2023-09-28T06:01:25.623Z,6.60
2023-09-28T06:03:52.708Z,6.65
2023-09-28T06:06:20.631Z,7.65
2023-09-28T06:08:48.325Z,6.20
2023-09-28T06:11:17.038Z,6.35
2023-09-28T06:14:04.926Z,6.72
2023-09-28T06:16:38.553Z,6.50
2023-09-28T06:19:05.525Z,6.40
2023-09-28T06:21:32.384Z,5.90
2023-09-28T06:23:59.305Z,6.88
2023-09-28T06:26:41.059Z,5.90
2023-09-28T06:29:09.840Z,6.18
2023-09-28T06:31:37.882Z,6.60
2023-09-28T06:34:04.965Z,6.68
2023-09-28T06:36:41.977Z,6.28
2023-09-28T06:39:34.543Z,6.63
2023-09-28T06:42:24.184Z,6.85
2023-09-28T06:44:56.492Z,6.35
2023-09-28T06:47:25.909Z,5.65
2023-09-28T06:50:00.443Z,5.30
2023-09-28T06:52:27.661Z,5.25
2023-09-28T06:54:55.118Z,5.32
2023-09-28T06:57:22.003Z,5.55
2023-09-28T06:59:48.906Z,6.38
2023-09-28T07:02:17.034Z,5.35
2023-09-28T07:04:43.862Z,5.55
2023-09-28T07:07:12.128Z,5.05
2023-09-28T07:09:51.018Z,5.70
2023-09-28T07:12:24.298Z,5.78
2023-09-28T07:14:51.258Z,5.47
2023-09-28T07:17:18.096Z,5.78
2023-09-28T07:19:45.230Z,6.07
2023-09-28T07:22:12.647Z,5.50
2023-09-28T07:24:39.421Z,5.85
2023-09-28T07:27:06.248Z,5.13
2023-09-28T07:29:33.945Z,4.75
2023-09-28T07:32:00.988Z,5.38
2023-09-28T07:34:28.232Z,5.22
2023-09-28T07:36:55.107Z,5.40
2023-09-28T07:39:21.903Z,5.90
2023-09-28T07:41:49.205Z,5.47
2023-09-28T07:44:16.201Z,6.00
2023-09-28T07:46:43.150Z,5.95
2023-09-28T07:49:09.969Z,5.93
2023-09-28T07:51:36.787Z,5.88
2023-09-28T07:54:03.751Z,5.90
2023-09-28T07:56:30.659Z,5.90
2023-09-28T07:58:58.814Z,6.80
2023-09-28T08:01:28.019Z,6.22
2023-09-28T08:03:55.142Z,5.68
2023-09-28T08:06:30.776Z,6.07
2023-09-28T08:08:58.409Z,5.68
2023-09-28T08:11:25.606Z,5.80
2023-09-28T08:13:52.528Z,6.43
2023-09-28T08:16:20.870Z,6.43
2023-09-28T08:18:48.205Z,6.07
2023-09-28T08:21:15.020Z,6.00
2023-09-28T08:23:42.658Z,6.10
2023-09-28T08:26:09.844Z,6.15
2023-09-28T08:28:36.770Z,6.50
2023-09-28T08:31:06.710Z,6.28
2023-09-28T08:33:33.633Z,6.15
2023-09-28T08:36:00.499Z,6.55
2023-09-28T08:38:27.407Z,6.50
2023-09-28T08:41:03.633Z,5.80
2023-09-28T08:44:02.866Z,6.50
2023-09-28T08:46:44.646Z,7.10
2023-09-28T08:49:17.314Z,7.30
2023-09-28T08:51:48.587Z,6.97
2023-09-28T08:54:17.700Z,6.55
2023-09-28T08:56:47.511Z,7.47
2023-09-28T08:59:18.054Z,7.43
2023-09-28T09:01:47.387Z,6.88
2023-09-28T09:04:14.279Z,6.70
2023-09-28T09:06:43.340Z,7.53
2023-09-28T09:09:16.494Z,7.47
2023-09-28T09:11:51.505Z,7.47
2023-09-28T09:14:18.928Z,7.47
2023-09-28T09:16:47.219Z,7.25
2023-09-28T09:19:15.863Z,6.88
2023-09-28T09:21:45.439Z,7.47
2023-09-28T09:24:20.286Z,7.20
2023-09-28T09:26:48.795Z,7.07
2023-09-28T09:29:17.669Z,7.43
2023-09-28T09:31:49.029Z,7.55
2023-09-28T09:34:22.913Z,6.95
2023-09-28T09:36:58.561Z,7.78
2023-09-28T09:39:27.652Z,7.57
2023-09-28T09:41:55.112Z,7.25
2023-09-28T09:44:23.873Z,7.47
2023-09-28T09:46:54.085Z,8.65
2023-09-28T09:49:22.545Z,8.48
2023-09-28T09:51:49.658Z,8.40
2023-09-28T09:54:17.858Z,7.88
2023-09-28T09:56:49.764Z,8.88
2023-09-28T09:59:28.086Z,7.85
2023-09-28T10:01:55.448Z,7.75
2023-09-28T10:04:25.237Z,8.30
2023-09-28T10:06:53.999Z,8.20
2023-09-28T10:09:22.740Z,7.78
2023-09-28T10:11:53.658Z,7.95
2023-09-28T10:14:22.886Z,7.55
2023-09-28T10:16:52.819Z,8.05
2023-09-28T10:19:22.525Z,7.55
2023-09-28T10:21:51.506Z,7.10
2023-09-28T10:24:18.811Z,6.85
2023-09-28T10:26:51.690Z,7.28
2023-09-28T10:29:32.096Z,7.22
2023-09-28T10:32:00.034Z,7.45
2023-09-28T10:34:31.409Z,6.78
2023-09-28T10:37:08.863Z,6.40
2023-09-28T10:39:36.147Z,6.45
2023-09-28T10:42:07.408Z,6.63
2023-09-28T10:44:34.266Z,6.28
2023-09-28T10:47:01.178Z,6.20
2023-09-28T10:49:29.393Z,6.18
2023-09-28T10:51:58.602Z,6.60
2023-09-28T10:54:28.976Z,6.30
2023-09-28T10:56:55.857Z,6.40
2023-09-28T10:59:22.857Z,6.15
2023-09-28T11:01:50.327Z,6.75
2023-09-28T11:04:18.303Z,6.00
2023-09-28T11:06:46.197Z,5.88
2023-09-28T11:09:15.574Z,6.03
2023-09-28T11:11:42.522Z,5.35
2023-09-28T11:14:09.531Z,5.80
2023-09-28T11:16:36.792Z,5.78
2023-09-28T11:19:04.482Z,5.80
2023-09-28T11:21:32.159Z,5.70
2023-09-28T11:23:59.082Z,5.30
2023-09-28T11:26:26.291Z,5.65
2023-09-28T11:28:55.861Z,5.32
2023-09-28T11:31:22.873Z,4.72
2023-09-28T11:33:50.475Z,4.63
2023-09-28T11:36:18.232Z,4.30
2023-09-28T11:38:46.660Z,4.35
2023-09-28T11:41:15.296Z,4.47
2023-09-28T11:43:48.518Z,4.50
2023-09-28T11:46:33.888Z,4.38
2023-09-28T11:49:12.669Z,4.03
2023-09-28T11:51:40.891Z,3.88
2023-09-28T11:54:13.591Z,3.97
2023-09-28T11:56:46.853Z,3.58
2023-09-28T11:59:17.315Z,3.95
2023-09-28T12:01:48.772Z,3.92
2023-09-28T12:04:16.394Z,3.53
2023-09-28T12:06:44.799Z,3.97
2023-09-28T12:09:11.714Z,3.60
2023-09-28T12:11:39.331Z,3.42
2023-09-28T12:14:06.593Z,3.20
2023-09-28T12:16:34.327Z,3.53
2023-09-28T12:19:01.390Z,3.90
2023-09-28T12:21:28.545Z,3.88
2023-09-28T12:23:57.499Z,3.05
2023-09-28T12:26:24.497Z,3.40
2023-09-28T12:28:53.601Z,3.30
2023-09-28T12:31:20.523Z,3.60
2023-09-28T12:33:47.535Z,3.60
2023-09-28T12:36:14.611Z,3.60
2023-09-28T12:38:42.601Z,3.28
2023-09-28T12:41:10.875Z,3.67
2023-09-28T12:43:37.990Z,3.60
2023-09-28T12:46:08.866Z,3.40
2023-09-28T12:48:35.855Z,3.35
2023-09-28T12:51:02.713Z,3.67
2023-09-28T12:53:33.768Z,3.50
2023-09-28T12:56:00.698Z,3.38
2023-09-28T12:58:27.656Z,3.60
2023-09-28T13:00:57.077Z,3.47
2023-09-28T13:03:30.552Z,3.30
2023-09-28T13:06:04.628Z,3.50
2023-09-28T13:08:32.827Z,3.50
2023-09-28T13:10:59.942Z,3.33
2023-09-28T13:13:26.788Z,3.28
2023-09-28T13:15:53.559Z,3.22
2023-09-28T13:18:21.838Z,3.00
2023-09-28T13:20:48.675Z,3.42
2023-09-28T13:23:16.561Z,3.40
2023-09-28T13:25:44.106Z,2.92
2023-09-28T13:28:12.010Z,3.60
2023-09-28T13:30:41.894Z,2.97
2023-09-28T13:33:10.920Z,3.20
2023-09-28T13:35:38.322Z,3.25
2023-09-28T13:38:05.651Z,3.25
2023-09-28T13:40:36.704Z,3.35
2023-09-28T13:43:08.526Z,3.15
2023-09-28T13:45:36.004Z,3.17
2023-09-28T13:48:04.585Z,3.13
2023-09-28T13:50:33.324Z,3.55
2023-09-28T13:53:00.396Z,3.38
2023-09-28T13:55:27.314Z,3.15
2023-09-28T13:57:54.684Z,3.40
2023-09-28T14:00:41.619Z,3.47
2023-09-28T14:03:08.884Z,3.45
2023-09-28T14:05:36.841Z,3.88
2023-09-28T14:08:04.858Z,3.38
2023-09-28T14:10:32.572Z,3.45
2023-09-28T14:12:59.440Z,3.65
2023-09-28T14:15:26.572Z,3.53
2023-09-28T14:17:54.929Z,3.60
2023-09-28T14:20:22.024Z,3.70
2023-09-28T14:22:49.873Z,3.85
2023-09-28T14:25:18.148Z,3.63
2023-09-28T14:27:48.653Z,3.88
2023-09-28T14:30:17.349Z,3.67
2023-09-28T14:32:45.800Z,3.50
2023-09-28T14:35:13.857Z,3.42
2023-09-28T14:37:40.911Z,3.50
2023-09-28T14:40:16.868Z,3.80
2023-09-28T14:42:46.445Z,3.75
2023-09-28T14:45:14.623Z,3.50
2023-09-28T14:47:42.343Z,3.55
2023-09-28T14:50:11.732Z,3.47
2023-09-28T14:52:39.648Z,3.70
2023-09-28T14:55:07.812Z,3.88
2023-09-28T14:57:34.948Z,3.67
2023-09-28T15:00:02.556Z,3.50
2023-09-28T15:02:29.738Z,3.60
2023-09-28T15:04:56.692Z,4.03
2023-09-28T15:07:23.501Z,3.90
2023-09-28T15:09:50.353Z,3.60
2023-09-28T15:12:17.254Z,3.97
2023-09-28T15:14:44.138Z,3.50
2023-09-28T15:17:11.082Z,3.70
2023-09-28T15:19:38.111Z,4.00
2023-09-28T15:22:05.045Z,4.45
2023-09-28T15:24:32.967Z,4.45
2023-09-28T15:26:59.968Z,4.18
2023-09-28T15:29:28.157Z,4.13
2023-09-28T15:31:55.075Z,4.45
2023-09-28T15:34:21.966Z,4.15
2023-09-28T15:36:51.548Z,4.35
2023-09-28T15:39:18.378Z,4.57
2023-09-28T15:41:45.914Z,4.68
2023-09-28T15:44:12.797Z,4.45
2023-09-28T15:46:40.480Z,4.55
2023-09-28T15:49:07.439Z,4.30
2023-09-28T15:51:34.658Z,4.65
2023-09-28T15:54:01.832Z,4.60
2023-09-28T15:56:29.016Z,4.38
2023-09-28T15:58:56.402Z,4.60
2023-09-28T16:01:24.353Z,4.82
2023-09-28T16:03:55.021Z,5.05
2023-09-28T16:06:24.276Z,5.15
2023-09-28T16:08:52.105Z,4.50
2023-09-28T16:11:20.335Z,4.53
2023-09-28T16:13:47.816Z,4.47
2023-09-28T16:16:14.844Z,4.57
2023-09-28T16:18:41.884Z,4.40
2023-09-28T16:21:08.748Z,4.63
2023-09-28T16:23:36.096Z,4.63
2023-09-28T16:26:03.366Z,4.50
2023-09-28T16:28:30.229Z,4.63
2023-09-28T16:30:57.515Z,4.45
2023-09-28T16:33:24.389Z,4.63
2023-09-28T16:35:51.836Z,4.45
2023-09-28T16:38:18.836Z,4.32
2023-09-28T16:40:45.676Z,4.57
2023-09-28T16:43:12.566Z,4.40
2023-09-28T16:45:39.368Z,4.47
2023-09-28T16:48:07.353Z,4.47
2023-09-28T16:50:34.866Z,4.30
2023-09-28T16:53:02.792Z,4.63
2023-09-28T16:55:33.156Z,4.20
2023-09-28T16:58:00.345Z,4.38
2023-09-28T17:00:27.739Z,4.68
2023-09-28T17:02:54.730Z,4.63
2023-09-28T17:05:21.796Z,4.40
2023-09-28T17:07:48.732Z,5.35
2023-09-28T17:10:19.097Z,4.55
2023-09-28T17:12:47.040Z,4.70
2023-09-28T17:15:14.051Z,5.57
2023-09-28T17:17:41.901Z,5.20
2023-09-28T17:20:09.685Z,4.63
2023-09-28T17:22:36.842Z,4.80
2023-09-28T17:25:03.990Z,4.80
2023-09-28T17:27:32.676Z,5.45
2023-09-28T17:30:00.895Z,8.27
2023-09-28T17:32:27.896Z,7.95
2023-09-28T17:34:55.756Z,7.43
2023-09-28T17:37:22.697Z,5.93
2023-09-28T17:39:51.172Z,5.55
2023-09-28T17:42:18.201Z,5.13
2023-09-28T17:44:45.154Z,5.50
2023-09-28T17:47:12.017Z,5.05
2023-09-28T17:49:39.386Z,4.88
2023-09-28T17:52:06.389Z,5.30
2023-09-28T17:54:33.454Z,4.90
2023-09-28T17:57:00.382Z,4.97
2023-09-28T17:59:27.607Z,4.90
2023-09-28T18:01:54.601Z,4.80
2023-09-28T18:04:21.506Z,4.72
2023-09-28T18:06:48.378Z,4.72
2023-09-28T18:09:15.935Z,5.00
2023-09-28T18:11:43.120Z,4.63
2023-09-28T18:14:10.008Z,4.57
2023-09-28T18:16:38.792Z,4.50
2023-09-28T18:19:05.641Z,4.05
2023-09-28T18:21:32.576Z,3.75
2023-09-28T18:23:59.370Z,3.90
2023-09-28T18:26:28.906Z,4.15
2023-09-28T18:28:57.984Z,5.20
2023-09-28T18:31:25.793Z,4.75
2023-09-28T18:33:55.386Z,4.95
2023-09-28T18:36:23.393Z,5.25
2023-09-28T18:39:03.439Z,4.95
2023-09-28T18:41:35.121Z,5.22
2023-09-28T18:44:02.009Z,5.10
2023-09-28T18:46:29.757Z,4.95
2023-09-28T18:48:56.718Z,5.15
2023-09-28T18:51:23.909Z,5.20
2023-09-28T18:53:51.341Z,4.90
2023-09-28T18:56:18.849Z,4.72
2023-09-28T18:58:45.699Z,5.07
2023-09-28T19:01:13.663Z,4.95
2023-09-28T19:03:42.341Z,5.60
2023-09-28T19:06:16.629Z,5.30
2023-09-28T19:08:44.042Z,5.40
2023-09-28T19:11:11.051Z,6.13
2023-09-28T19:13:37.983Z,5.40
2023-09-28T19:16:08.891Z,5.20
2023-09-28T19:18:36.036Z,5.68
2023-09-28T19:21:03.243Z,5.47
2023-09-28T19:23:30.334Z,6.18
2023-09-28T19:26:00.032Z,5.80
2023-09-28T19:28:27.042Z,6.75
2023-09-28T19:30:53.873Z,5.82
2023-09-28T19:33:22.927Z,5.80
2023-09-28T19:35:49.912Z,6.30
2023-09-28T19:38:17.642Z,5.75
2023-09-28T19:40:45.574Z,6.30
2023-09-28T19:43:12.496Z,5.72
2023-09-28T19:45:44.227Z,5.43
2023-09-28T19:48:11.477Z,5.65
2023-09-28T19:50:41.848Z,5.85
2023-09-28T19:53:10.205Z,5.85
2023-09-28T19:55:39.872Z,5.63
2023-09-28T19:58:06.672Z,5.57
2023-09-28T20:00:34.342Z,5.95
2023-09-28T20:03:01.462Z,6.00
2023-09-28T20:05:28.493Z,5.72
2023-09-28T20:07:55.694Z,5.38
2023-09-28T20:10:23.094Z,5.05
2023-09-28T20:12:50.266Z,4.85
2023-09-28T20:15:17.159Z,5.28
2023-09-28T20:17:44.135Z,5.65
2023-09-28T20:20:11.765Z,5.15
2023-09-28T20:22:50.236Z,5.53
2023-09-28T20:25:21.067Z,5.25
2023-09-28T20:27:48.001Z,5.30
2023-09-28T20:30:17.549Z,4.93
2023-09-28T20:32:45.765Z,5.45
2023-09-28T20:35:14.851Z,5.07
2023-09-28T20:37:42.348Z,5.15
2023-09-28T20:40:10.345Z,5.53
2023-09-28T20:42:37.283Z,5.22
2023-09-28T20:45:05.688Z,5.35
2023-09-28T20:47:36.179Z,5.60
2023-09-28T20:50:05.372Z,6.28
2023-09-28T20:52:32.604Z,5.70
2023-09-28T20:54:59.630Z,5.45
2023-09-28T20:57:27.094Z,4.47
2023-09-28T20:59:57.306Z,4.80
2023-09-28T21:02:24.529Z,5.10
2023-09-28T21:04:52.150Z,5.07
2023-09-28T21:07:19.103Z,6.00
2023-09-28T21:09:46.359Z,5.65
2023-09-28T21:12:13.295Z,5.35
2023-09-28T21:14:40.144Z,5.35
2023-09-28T21:17:07.047Z,5.45
2023-09-28T21:19:33.925Z,5.53
2023-09-28T21:22:00.788Z,5.15
2023-09-28T21:24:27.729Z,5.20
2023-09-28T21:26:54.709Z,5.18
2023-09-28T21:29:21.835Z,4.97
2023-09-28T21:31:48.872Z,5.05
2023-09-28T21:34:15.771Z,4.80
2023-09-28T21:36:42.609Z,4.93
2023-09-28T21:39:09.471Z,5.40
2023-09-28T21:41:36.422Z,5.00
2023-09-28T21:44:03.355Z,4.78
2023-09-28T21:46:30.414Z,5.13
2023-09-28T21:48:57.427Z,5.07
2023-09-28T21:51:24.494Z,4.65
2023-09-28T21:53:51.486Z,5.22
2023-09-28T21:56:19.001Z,4.85
2023-09-28T21:58:46.576Z,4.80
2023-09-28T22:01:16.477Z,5.72
2023-09-28T22:03:44.696Z,4.80
2023-09-28T22:06:12.498Z,5.03
2023-09-28T22:08:40.034Z,4.70
2023-09-28T22:11:08.933Z,4.32
2023-09-28T22:13:36.770Z,4.50
2023-09-28T22:16:05.463Z,4.97
2023-09-28T22:18:32.878Z,4.85
2023-09-28T22:20:59.873Z,4.72
2023-09-28T22:23:27.036Z,4.45
2023-09-28T22:25:53.905Z,4.40
2023-09-28T22:28:20.795Z,4.82
2023-09-28T22:30:47.613Z,5.20
2023-09-28T22:33:14.677Z,4.35
2023-09-28T22:35:42.238Z,4.57
2023-09-28T22:38:09.137Z,4.20
2023-09-28T22:40:36.010Z,4.55
2023-09-28T22:43:02.892Z,4.57
2023-09-28T22:45:29.865Z,4.35
2023-09-28T22:47:57.084Z,4.80
2023-09-28T22:50:24.221Z,5.00
2023-09-28T22:52:51.058Z,4.53
2023-09-28T22:55:17.945Z,4.85
2023-09-28T22:57:45.418Z,4.90
2023-09-28T23:00:14.191Z,4.72
2023-09-28T23:02:43.164Z,4.22
2023-09-28T23:05:10.792Z,4.65
2023-09-28T23:07:37.761Z,4.40
2023-09-28T23:10:05.369Z,4.70
2023-09-28T23:12:33.432Z,4.38
2023-09-28T23:15:00.619Z,4.82
2023-09-28T23:17:27.777Z,4.88
2023-09-28T23:19:54.831Z,4.95
2023-09-28T23:22:21.705Z,4.70
2023-09-28T23:24:51.860Z,4.80
2023-09-28T23:27:18.883Z,4.50
2023-09-28T23:29:46.412Z,4.40
2023-09-28T23:32:13.267Z,4.95
2023-09-28T23:34:42.874Z,4.25
2023-09-28T23:37:10.043Z,4.78
2023-09-28T23:39:36.931Z,4.60
2023-09-28T23:42:04.013Z,4.47
2023-09-28T23:44:31.057Z,5.03
2023-09-28T23:46:58.039Z,4.90
2023-09-28T23:49:28.448Z,4.90
2023-09-28T23:54:23.566Z,4.78
2023-09-28T23:56:50.863Z,5.00
2023-09-28T23:59:18.588Z,5.20
